sensor_id;sensor_type;location;lat;lon;timestamp;pressure;altitude;pressure_sealevel;temperature;humidity
53300;BME280;39187;48.476;8.310;2022-10-28T00:02:15;92125.06;;;17.42;53.35
53300;BME280;39187;48.476;8.310;2022-10-28T00:04:41;92130.44;;;17.42;53.39
53300;BME280;39187;48.476;8.310;2022-10-28T00:07:06;92121.94;;;17.43;53.23
53300;BME280;39187;48.476;8.310;2022-10-28T00:09:32;92119.69;;;17.42;52.98
53300;BME280;39187;48.476;8.310;2022-10-28T00:11:57;92128.50;;;17.42;52.45
53300;BME280;39187;48.476;8.310;2022-10-28T00:14:23;92119.25;;;17.43;52.06
53300;BME280;39187;48.476;8.310;2022-10-28T00:16:49;92121.41;;;17.48;51.70
53300;BME280;39187;48.476;8.310;2022-10-28T00:19:15;92121.72;;;17.50;51.64
53300;BME280;39187;48.476;8.310;2022-10-28T00:21:42;92117.94;;;17.48;51.44
53300;BME280;39187;48.476;8.310;2022-10-28T00:24:09;92130.97;;;17.49;50.74
53300;BME280;39187;48.476;8.310;2022-10-28T00:26:37;92124.28;;;17.54;50.45
53300;BME280;39187;48.476;8.310;2022-10-28T00:29:05;92118.47;;;17.55;49.94
53300;BME280;39187;48.476;8.310;2022-10-28T00:31:32;92115.78;;;17.55;49.63
53300;BME280;39187;48.476;8.310;2022-10-28T00:33:59;92123.44;;;17.57;49.55
53300;BME280;39187;48.476;8.310;2022-10-28T00:36:29;92118.69;;;17.61;49.14
53300;BME280;39187;48.476;8.310;2022-10-28T00:38:58;92119.78;;;17.63;49.11
53300;BME280;39187;48.476;8.310;2022-10-28T00:41:33;92117.19;;;17.60;49.04
53300;BME280;39187;48.476;8.310;2022-10-28T00:44:36;92119.78;;;17.63;48.66
53300;BME280;39187;48.476;8.310;2022-10-28T00:46:48;92112.88;;;17.62;48.71
53300;BME280;39187;48.476;8.310;2022-10-28T00:49:27;92110.84;;;17.67;48.25
53300;BME280;39187;48.476;8.310;2022-10-28T00:52:05;92117.28;;;17.69;48.25
53300;BME280;39187;48.476;8.310;2022-10-28T00:54:32;92114.59;;;17.69;48.26
53300;BME280;39187;48.476;8.310;2022-10-28T00:57:00;92115.34;;;17.70;48.13
53300;BME280;39187;48.476;8.310;2022-10-28T00:59:33;92106.94;;;17.68;47.88
53300;BME280;39187;48.476;8.310;2022-10-28T01:01:59;92108.47;;;17.69;47.91
53300;BME280;39187;48.476;8.310;2022-10-28T01:04:26;92104.06;;;17.62;48.06
53300;BME280;39187;48.476;8.310;2022-10-28T01:06:51;92103.97;;;17.66;47.94
53300;BME280;39187;48.476;8.310;2022-10-28T01:09:17;92099.63;;;17.68;47.75
53300;BME280;39187;48.476;8.310;2022-10-28T01:14:45;92096.84;;;17.59;47.91
53300;BME280;39187;48.476;8.310;2022-10-28T01:22:35;92101.03;;;17.60;47.51
53300;BME280;39187;48.476;8.310;2022-10-28T01:36:47;92092.72;;;17.67;47.01
53300;BME280;39187;48.476;8.310;2022-10-28T01:38:54;92088.84;;;17.68;46.74
53300;BME280;39187;48.476;8.310;2022-10-28T01:43:54;92088.66;;;17.62;46.75
53300;BME280;39187;48.476;8.310;2022-10-28T01:46:30;92084.97;;;17.69;46.62
53300;BME280;39187;48.476;8.310;2022-10-28T01:49:07;92085.41;;;17.68;46.62
53300;BME280;39187;48.476;8.310;2022-10-28T01:51:38;92088.00;;;17.71;46.50
53300;BME280;39187;48.476;8.310;2022-10-28T01:54:07;92082.72;;;17.68;46.40
53300;BME280;39187;48.476;8.310;2022-10-28T01:56:38;92083.03;;;17.70;46.42
53300;BME280;39187;48.476;8.310;2022-10-28T01:59:21;92084.47;;;17.61;46.13
53300;BME280;39187;48.476;8.310;2022-10-28T02:01:49;92086.50;;;17.70;46.42
53300;BME280;39187;48.476;8.310;2022-10-28T02:04:14;92085.31;;;17.71;46.10
53300;BME280;39187;48.476;8.310;2022-10-28T02:06:42;92084.00;;;17.76;45.70
53300;BME280;39187;48.476;8.310;2022-10-28T02:12:06;92077.28;;;17.80;45.10
53300;BME280;39187;48.476;8.310;2022-10-28T02:17:25;92076.44;;;17.83;45.04
53300;BME280;39187;48.476;8.310;2022-10-28T02:20:03;92080.38;;;17.91;44.83
53300;BME280;39187;48.476;8.310;2022-10-28T02:22:42;92076.38;;;17.96;44.80
53300;BME280;39187;48.476;8.310;2022-10-28T02:30:26;92080.38;;;18.13;44.33
53300;BME280;39187;48.476;8.310;2022-10-28T02:32:59;92080.56;;;18.19;44.25
53300;BME280;39187;48.476;8.310;2022-10-28T02:35:30;92071.59;;;18.22;43.81
53300;BME280;39187;48.476;8.310;2022-10-28T02:38:00;92066.97;;;18.22;44.02
53300;BME280;39187;48.476;8.310;2022-10-28T02:40:29;92072.72;;;18.12;43.99
53300;BME280;39187;48.476;8.310;2022-10-28T02:43:00;92068.78;;;18.25;43.69
53300;BME280;39187;48.476;8.310;2022-10-28T02:45:34;92076.94;;;18.13;44.01
53300;BME280;39187;48.476;8.310;2022-10-28T02:48:08;92070.53;;;18.19;43.76
53300;BME280;39187;48.476;8.310;2022-10-28T02:50:39;92060.19;;;18.39;43.60
53300;BME280;39187;48.476;8.310;2022-10-28T02:53:16;92076.66;;;18.41;43.16
53300;BME280;39187;48.476;8.310;2022-10-28T02:55:45;92061.88;;;18.24;43.52
53300;BME280;39187;48.476;8.310;2022-10-28T02:58:13;92067.22;;;18.37;43.72
53300;BME280;39187;48.476;8.310;2022-10-28T03:00:43;92069.34;;;18.42;43.28
53300;BME280;39187;48.476;8.310;2022-10-28T03:03:09;92066.94;;;18.44;43.44
53300;BME280;39187;48.476;8.310;2022-10-28T03:05:35;92070.19;;;18.39;43.28
53300;BME280;39187;48.476;8.310;2022-10-28T03:08:00;92076.41;;;18.49;43.59
53300;BME280;39187;48.476;8.310;2022-10-28T03:10:25;92071.38;;;18.38;43.48
53300;BME280;39187;48.476;8.310;2022-10-28T03:12:51;92069.34;;;18.20;44.05
53300;BME280;39187;48.476;8.310;2022-10-28T03:15:16;92072.59;;;18.37;43.74
53300;BME280;39187;48.476;8.310;2022-10-28T03:17:42;92072.94;;;18.17;43.66
53300;BME280;39187;48.476;8.310;2022-10-28T03:20:08;92078.19;;;18.21;43.72
53300;BME280;39187;48.476;8.310;2022-10-28T03:22:34;92074.72;;;18.20;43.86
53300;BME280;39187;48.476;8.310;2022-10-28T03:24:59;92072.88;;;18.30;43.77
53300;BME280;39187;48.476;8.310;2022-10-28T03:27:25;92068.84;;;18.34;43.48
53300;BME280;39187;48.476;8.310;2022-10-28T03:29:50;92064.38;;;18.40;43.43
53300;BME280;39187;48.476;8.310;2022-10-28T03:32:16;92060.78;;;18.43;43.42
53300;BME280;39187;48.476;8.310;2022-10-28T03:34:41;92055.97;;;18.38;43.39
53300;BME280;39187;48.476;8.310;2022-10-28T03:37:06;92060.59;;;18.38;43.51
53300;BME280;39187;48.476;8.310;2022-10-28T03:39:32;92058.56;;;18.42;43.71
53300;BME280;39187;48.476;8.310;2022-10-28T03:41:58;92047.38;;;18.53;43.65
53300;BME280;39187;48.476;8.310;2022-10-28T03:44:23;92046.75;;;18.49;43.51
53300;BME280;39187;48.476;8.310;2022-10-28T03:46:49;92046.88;;;18.45;43.36
53300;BME280;39187;48.476;8.310;2022-10-28T03:49:14;92047.28;;;18.56;43.29
53300;BME280;39187;48.476;8.310;2022-10-28T03:51:40;92041.13;;;18.56;43.39
53300;BME280;39187;48.476;8.310;2022-10-28T03:54:05;92035.22;;;18.48;43.79
53300;BME280;39187;48.476;8.310;2022-10-28T03:56:31;92044.81;;;18.49;43.85
53300;BME280;39187;48.476;8.310;2022-10-28T03:58:56;92044.56;;;18.56;43.82
53300;BME280;39187;48.476;8.310;2022-10-28T04:01:22;92040.28;;;18.46;43.95
53300;BME280;39187;48.476;8.310;2022-10-28T04:03:47;92034.31;;;18.20;44.05
53300;BME280;39187;48.476;8.310;2022-10-28T04:06:13;92028.00;;;18.14;43.83
53300;BME280;39187;48.476;8.310;2022-10-28T04:08:38;92030.16;;;17.97;44.43
53300;BME280;39187;48.476;8.310;2022-10-28T04:11:04;92023.50;;;17.89;44.49
53300;BME280;39187;48.476;8.310;2022-10-28T04:13:30;92028.31;;;17.94;45.02
53300;BME280;39187;48.476;8.310;2022-10-28T04:15:55;92028.81;;;18.02;45.21
53300;BME280;39187;48.476;8.310;2022-10-28T04:18:21;92033.63;;;17.63;46.08
53300;BME280;39187;48.476;8.310;2022-10-28T04:20:46;92030.28;;;17.72;45.55
53300;BME280;39187;48.476;8.310;2022-10-28T04:23:14;92034.56;;;17.70;45.79
53300;BME280;39187;48.476;8.310;2022-10-28T04:25:40;92032.53;;;17.95;44.99
53300;BME280;39187;48.476;8.310;2022-10-28T04:28:05;92036.47;;;18.03;44.95
53300;BME280;39187;48.476;8.310;2022-10-28T04:30:31;92025.19;;;17.96;44.53
53300;BME280;39187;48.476;8.310;2022-10-28T04:32:56;92034.22;;;18.02;44.70
53300;BME280;39187;48.476;8.310;2022-10-28T04:35:22;92035.28;;;18.05;44.72
53300;BME280;39187;48.476;8.310;2022-10-28T04:37:48;92035.75;;;18.12;44.59
53300;BME280;39187;48.476;8.310;2022-10-28T04:40:13;92038.41;;;18.03;44.33
53300;BME280;39187;48.476;8.310;2022-10-28T04:42:39;92031.25;;;18.09;44.44
53300;BME280;39187;48.476;8.310;2022-10-28T04:45:05;92033.72;;;18.16;44.09
53300;BME280;39187;48.476;8.310;2022-10-28T04:47:31;92031.13;;;18.13;44.32
53300;BME280;39187;48.476;8.310;2022-10-28T04:49:56;92031.59;;;18.11;44.24
53300;BME280;39187;48.476;8.310;2022-10-28T04:52:22;92023.13;;;18.00;44.34
53300;BME280;39187;48.476;8.310;2022-10-28T04:54:47;92029.91;;;18.05;44.29
53300;BME280;39187;48.476;8.310;2022-10-28T04:57:13;92024.44;;;17.95;44.11
53300;BME280;39187;48.476;8.310;2022-10-28T04:59:38;92030.50;;;18.09;44.02
53300;BME280;39187;48.476;8.310;2022-10-28T05:02:04;92030.13;;;18.19;43.90
53300;BME280;39187;48.476;8.310;2022-10-28T05:04:29;92027.66;;;18.34;43.45
53300;BME280;39187;48.476;8.310;2022-10-28T05:06:55;92027.16;;;18.26;43.40
53300;BME280;39187;48.476;8.310;2022-10-28T05:09:20;92021.56;;;18.42;43.41
53300;BME280;39187;48.476;8.310;2022-10-28T05:11:46;92026.97;;;18.42;43.44
53300;BME280;39187;48.476;8.310;2022-10-28T05:14:11;92028.75;;;18.46;43.31
53300;BME280;39187;48.476;8.310;2022-10-28T05:16:37;92020.34;;;18.43;43.37
53300;BME280;39187;48.476;8.310;2022-10-28T05:19:02;92023.34;;;18.36;43.18
53300;BME280;39187;48.476;8.310;2022-10-28T05:21:28;92018.75;;;18.24;43.68
53300;BME280;39187;48.476;8.310;2022-10-28T05:23:53;92018.03;;;18.24;43.69
53300;BME280;39187;48.476;8.310;2022-10-28T05:26:19;92018.31;;;18.26;43.42
53300;BME280;39187;48.476;8.310;2022-10-28T05:28:48;92016.19;;;18.42;43.21
53300;BME280;39187;48.476;8.310;2022-10-28T05:31:15;92018.41;;;18.13;43.29
53300;BME280;39187;48.476;8.310;2022-10-28T05:33:40;92011.72;;;18.18;43.31
53300;BME280;39187;48.476;8.310;2022-10-28T05:36:07;92009.06;;;18.27;43.66
53300;BME280;39187;48.476;8.310;2022-10-28T05:38:32;92009.31;;;18.20;43.47
53300;BME280;39187;48.476;8.310;2022-10-28T05:40:58;92000.78;;;18.21;43.28
53300;BME280;39187;48.476;8.310;2022-10-28T05:43:23;91993.97;;;18.29;42.79
53300;BME280;39187;48.476;8.310;2022-10-28T05:45:56;91991.13;;;18.33;42.94
53300;BME280;39187;48.476;8.310;2022-10-28T05:48:23;91990.63;;;18.25;42.86
53300;BME280;39187;48.476;8.310;2022-10-28T05:50:48;91986.91;;;18.32;42.65
53300;BME280;39187;48.476;8.310;2022-10-28T05:53:14;91976.28;;;18.28;42.89
53300;BME280;39187;48.476;8.310;2022-10-28T05:55:40;91998.09;;;18.21;43.24
53300;BME280;39187;48.476;8.310;2022-10-28T05:58:05;92006.00;;;18.16;43.75
53300;BME280;39187;48.476;8.310;2022-10-28T06:00:31;92019.72;;;18.09;43.79
53300;BME280;39187;48.476;8.310;2022-10-28T06:03:01;92019.72;;;18.09;43.75
53300;BME280;39187;48.476;8.310;2022-10-28T06:05:27;92016.66;;;18.19;43.62
53300;BME280;39187;48.476;8.310;2022-10-28T06:07:53;92016.44;;;18.35;43.30
53300;BME280;39187;48.476;8.310;2022-10-28T06:10:18;92010.56;;;18.59;43.45
53300;BME280;39187;48.476;8.310;2022-10-28T06:12:43;92010.81;;;18.21;44.10
53300;BME280;39187;48.476;8.310;2022-10-28T06:15:09;92015.38;;;18.33;44.25
53300;BME280;39187;48.476;8.310;2022-10-28T06:17:35;92010.22;;;18.17;43.94
53300;BME280;39187;48.476;8.310;2022-10-28T06:20:01;92020.16;;;18.07;44.23
53300;BME280;39187;48.476;8.310;2022-10-28T06:22:26;92021.69;;;18.08;44.06
53300;BME280;39187;48.476;8.310;2022-10-28T06:24:52;92022.34;;;18.21;44.21
53300;BME280;39187;48.476;8.310;2022-10-28T06:27:18;92029.00;;;18.08;44.34
53300;BME280;39187;48.476;8.310;2022-10-28T06:29:43;92022.50;;;18.18;43.72
53300;BME280;39187;48.476;8.310;2022-10-28T06:32:09;92020.25;;;18.25;43.46
53300;BME280;39187;48.476;8.310;2022-10-28T06:34:35;92021.94;;;18.32;43.52
53300;BME280;39187;48.476;8.310;2022-10-28T06:37:00;92026.50;;;18.13;44.28
53300;BME280;39187;48.476;8.310;2022-10-28T06:39:26;92022.41;;;18.30;44.07
53300;BME280;39187;48.476;8.310;2022-10-28T06:41:51;92032.44;;;18.08;44.48
53300;BME280;39187;48.476;8.310;2022-10-28T06:44:17;92031.88;;;18.13;44.41
53300;BME280;39187;48.476;8.310;2022-10-28T06:46:42;92033.63;;;18.07;45.14
53300;BME280;39187;48.476;8.310;2022-10-28T06:49:08;92035.00;;;18.12;44.63
53300;BME280;39187;48.476;8.310;2022-10-28T06:51:33;92038.56;;;18.30;43.47
53300;BME280;39187;48.476;8.310;2022-10-28T06:53:59;92028.22;;;18.29;43.68
53300;BME280;39187;48.476;8.310;2022-10-28T06:56:24;92038.09;;;18.23;43.69
53300;BME280;39187;48.476;8.310;2022-10-28T06:58:51;92039.84;;;18.48;43.49
53300;BME280;39187;48.476;8.310;2022-10-28T07:01:17;92042.88;;;18.50;43.38
53300;BME280;39187;48.476;8.310;2022-10-28T07:03:43;92036.50;;;18.56;43.54
53300;BME280;39187;48.476;8.310;2022-10-28T07:06:09;92047.63;;;18.76;43.33
53300;BME280;39187;48.476;8.310;2022-10-28T07:08:34;92045.16;;;18.91;42.89
53300;BME280;39187;48.476;8.310;2022-10-28T07:11:00;92053.19;;;18.73;43.08
53300;BME280;39187;48.476;8.310;2022-10-28T07:13:26;92055.22;;;19.00;42.89
53300;BME280;39187;48.476;8.310;2022-10-28T07:15:56;92062.13;;;19.01;42.93
53300;BME280;39187;48.476;8.310;2022-10-28T07:18:24;92067.09;;;19.11;43.15
53300;BME280;39187;48.476;8.310;2022-10-28T07:20:50;92059.44;;;19.10;42.59
53300;BME280;39187;48.476;8.310;2022-10-28T07:23:16;92062.16;;;19.10;42.92
53300;BME280;39187;48.476;8.310;2022-10-28T07:25:41;92074.16;;;19.18;42.62
53300;BME280;39187;48.476;8.310;2022-10-28T07:28:07;92079.53;;;19.09;42.24
53300;BME280;39187;48.476;8.310;2022-10-28T07:30:33;92077.34;;;19.35;42.38
53300;BME280;39187;48.476;8.310;2022-10-28T07:32:59;92083.84;;;19.46;42.08
53300;BME280;39187;48.476;8.310;2022-10-28T07:35:28;92072.63;;;19.66;42.22
53300;BME280;39187;48.476;8.310;2022-10-28T07:37:55;92078.78;;;19.76;42.12
53300;BME280;39187;48.476;8.310;2022-10-28T07:40:22;92084.03;;;19.52;42.13
53300;BME280;39187;48.476;8.310;2022-10-28T07:42:47;92082.25;;;19.76;41.79
53300;BME280;39187;48.476;8.310;2022-10-28T07:45:13;92081.34;;;19.79;41.59
53300;BME280;39187;48.476;8.310;2022-10-28T07:47:39;92081.91;;;19.56;42.01
53300;BME280;39187;48.476;8.310;2022-10-28T07:50:05;92089.06;;;19.32;42.09
53300;BME280;39187;48.476;8.310;2022-10-28T07:52:31;92089.22;;;19.37;41.62
53300;BME280;39187;48.476;8.310;2022-10-28T07:54:57;92087.97;;;19.29;42.13
53300;BME280;39187;48.476;8.310;2022-10-28T07:57:23;92085.59;;;19.31;42.14
53300;BME280;39187;48.476;8.310;2022-10-28T07:59:49;92086.19;;;19.35;41.74
53300;BME280;39187;48.476;8.310;2022-10-28T08:02:17;92079.34;;;19.52;41.71
53300;BME280;39187;48.476;8.310;2022-10-28T08:04:43;92065.25;;;19.48;41.40
53300;BME280;39187;48.476;8.310;2022-10-28T08:07:09;92078.31;;;19.50;41.89
53300;BME280;39187;48.476;8.310;2022-10-28T08:09:34;92077.41;;;19.53;41.66
53300;BME280;39187;48.476;8.310;2022-10-28T08:12:00;92080.84;;;19.53;41.39
53300;BME280;39187;48.476;8.310;2022-10-28T08:14:25;92082.38;;;19.64;41.95
53300;BME280;39187;48.476;8.310;2022-10-28T08:16:51;92084.47;;;19.59;41.68
53300;BME280;39187;48.476;8.310;2022-10-28T08:19:16;92086.13;;;19.57;41.43
53300;BME280;39187;48.476;8.310;2022-10-28T08:21:42;92086.44;;;19.68;41.81
53300;BME280;39187;48.476;8.310;2022-10-28T08:24:07;92089.44;;;19.61;41.64
53300;BME280;39187;48.476;8.310;2022-10-28T08:26:33;92092.84;;;19.52;41.99
53300;BME280;39187;48.476;8.310;2022-10-28T08:28:58;92099.47;;;19.60;42.15
53300;BME280;39187;48.476;8.310;2022-10-28T08:31:26;92090.78;;;19.75;42.27
53300;BME280;39187;48.476;8.310;2022-10-28T08:33:51;92092.00;;;20.10;41.35
53300;BME280;39187;48.476;8.310;2022-10-28T08:36:17;92093.19;;;20.18;41.71
53300;BME280;39187;48.476;8.310;2022-10-28T08:38:44;92096.66;;;20.19;41.65
53300;BME280;39187;48.476;8.310;2022-10-28T08:41:54;92095.16;;;20.09;41.61
53300;BME280;39187;48.476;8.310;2022-10-28T08:50:11;92097.25;;;20.32;40.81
53300;BME280;39187;48.476;8.310;2022-10-28T08:52:47;92086.59;;;20.01;41.04
53300;BME280;39187;48.476;8.310;2022-10-28T08:55:19;92078.66;;;19.88;40.68
53300;BME280;39187;48.476;8.310;2022-10-28T08:58:08;92084.50;;;19.96;40.48
53300;BME280;39187;48.476;8.310;2022-10-28T09:00:36;92083.44;;;19.93;41.04
53300;BME280;39187;48.476;8.310;2022-10-28T09:05:38;92084.03;;;19.79;41.61
53300;BME280;39187;48.476;8.310;2022-10-28T09:08:05;92087.94;;;19.87;41.16
53300;BME280;39187;48.476;8.310;2022-10-28T09:10:55;92083.16;;;19.82;41.77
53300;BME280;39187;48.476;8.310;2022-10-28T09:13:44;92090.03;;;19.92;41.98
53300;BME280;39187;48.476;8.310;2022-10-28T09:19:07;92081.19;;;20.37;40.41
53300;BME280;39187;48.476;8.310;2022-10-28T09:21:56;92081.63;;;20.54;40.25
53300;BME280;39187;48.476;8.310;2022-10-28T09:24:46;92089.00;;;20.45;40.43
53300;BME280;39187;48.476;8.310;2022-10-28T09:30:37;92085.81;;;20.55;40.68
53300;BME280;39187;48.476;8.310;2022-10-28T09:35:56;92093.94;;;20.28;40.50
53300;BME280;39187;48.476;8.310;2022-10-28T09:38:35;92089.75;;;20.45;40.38
53300;BME280;39187;48.476;8.310;2022-10-28T09:41:22;92094.56;;;20.41;40.12
53300;BME280;39187;48.476;8.310;2022-10-28T09:44:20;92087.78;;;20.36;40.01
53300;BME280;39187;48.476;8.310;2022-10-28T09:46:50;92097.69;;;20.58;39.73
53300;BME280;39187;48.476;8.310;2022-10-28T09:49:23;92096.38;;;20.95;39.54
53300;BME280;39187;48.476;8.310;2022-10-28T09:51:54;92093.34;;;21.44;38.33
53300;BME280;39187;48.476;8.310;2022-10-28T09:54:53;92096.91;;;21.50;37.67
53300;BME280;39187;48.476;8.310;2022-10-28T09:57:21;92086.66;;;21.54;37.80
53300;BME280;39187;48.476;8.310;2022-10-28T09:59:48;92099.94;;;21.91;36.74
53300;BME280;39187;48.476;8.310;2022-10-28T10:02:29;92098.09;;;22.21;36.66
53300;BME280;39187;48.476;8.310;2022-10-28T10:04:57;92094.59;;;22.06;36.30
53300;BME280;39187;48.476;8.310;2022-10-28T10:09:58;92099.47;;;22.02;36.85
53300;BME280;39187;48.476;8.310;2022-10-28T10:12:25;92101.59;;;21.97;36.76
53300;BME280;39187;48.476;8.310;2022-10-28T10:14:54;92107.81;;;21.89;36.22
53300;BME280;39187;48.476;8.310;2022-10-28T10:17:26;92102.97;;;22.31;36.27
53300;BME280;39187;48.476;8.310;2022-10-28T10:20:17;92094.66;;;21.96;36.58
53300;BME280;39187;48.476;8.310;2022-10-28T10:22:45;92092.75;;;22.12;36.90
53300;BME280;39187;48.476;8.310;2022-10-28T10:27:51;92099.94;;;21.91;36.73
53300;BME280;39187;48.476;8.310;2022-10-28T10:30:22;92108.97;;;22.35;36.72
53300;BME280;39187;48.476;8.310;2022-10-28T10:32:48;92116.00;;;22.57;36.25
53300;BME280;39187;48.476;8.310;2022-10-28T10:35:27;92126.31;;;22.67;35.93
53300;BME280;39187;48.476;8.310;2022-10-28T10:37:58;92121.69;;;22.44;36.78
53300;BME280;39187;48.476;8.310;2022-10-28T10:40:33;92123.97;;;22.46;36.95
53300;BME280;39187;48.476;8.310;2022-10-28T10:48:21;92130.50;;;22.39;35.78
53300;BME280;39187;48.476;8.310;2022-10-28T10:50:48;92091.81;;;22.15;35.83
53300;BME280;39187;48.476;8.310;2022-10-28T10:53:25;92077.19;;;21.97;36.42
53300;BME280;39187;48.476;8.310;2022-10-28T10:55:57;92101.88;;;21.76;37.59
53300;BME280;39187;48.476;8.310;2022-10-28T10:58:27;92100.66;;;22.01;38.11
53300;BME280;39187;48.476;8.310;2022-10-28T11:00:56;92105.38;;;21.91;38.49
53300;BME280;39187;48.476;8.310;2022-10-28T11:03:34;92113.19;;;21.98;38.77
53300;BME280;39187;48.476;8.310;2022-10-28T11:06:05;92099.97;;;21.67;38.96
53300;BME280;39187;48.476;8.310;2022-10-28T11:08:35;92109.00;;;21.88;39.43
53300;BME280;39187;48.476;8.310;2022-10-28T11:11:03;92090.00;;;21.97;39.50
53300;BME280;39187;48.476;8.310;2022-10-28T11:13:30;92088.69;;;21.83;39.67
53300;BME280;39187;48.476;8.310;2022-10-28T11:16:03;92092.69;;;21.97;38.50
53300;BME280;39187;48.476;8.310;2022-10-28T11:18:50;92092.84;;;21.93;37.95
53300;BME280;39187;48.476;8.310;2022-10-28T11:21:27;92091.41;;;21.83;37.49
53300;BME280;39187;48.476;8.310;2022-10-28T11:24:20;92093.91;;;21.96;37.40
53300;BME280;39187;48.476;8.310;2022-10-28T11:29:41;92083.88;;;21.87;36.79
53300;BME280;39187;48.476;8.310;2022-10-28T11:35:06;92079.66;;;22.10;36.89
53300;BME280;39187;48.476;8.310;2022-10-28T11:38:09;92074.16;;;22.19;36.42
53300;BME280;39187;48.476;8.310;2022-10-28T11:43:50;92063.19;;;21.99;36.38
53300;BME280;39187;48.476;8.310;2022-10-28T11:48:51;92073.81;;;22.03;37.39
53300;BME280;39187;48.476;8.310;2022-10-28T12:19:11;92056.44;;;22.77;36.68
53300;BME280;39187;48.476;8.310;2022-10-28T12:24:23;92050.88;;;22.86;36.83
53300;BME280;39187;48.476;8.310;2022-10-28T12:26:56;92047.63;;;22.97;36.15
53300;BME280;39187;48.476;8.310;2022-10-28T12:29:32;92058.94;;;22.95;36.33
53300;BME280;39187;48.476;8.310;2022-10-28T12:32:50;92063.53;;;22.74;36.84
53300;BME280;39187;48.476;8.310;2022-10-28T12:35:13;92064.13;;;22.78;36.91
53300;BME280;39187;48.476;8.310;2022-10-28T12:37:47;92057.44;;;22.65;37.02
53300;BME280;39187;48.476;8.310;2022-10-28T12:40:23;92054.28;;;22.81;36.32
53300;BME280;39187;48.476;8.310;2022-10-28T12:42:59;92054.34;;;22.72;36.39
53300;BME280;39187;48.476;8.310;2022-10-28T12:45:27;92049.31;;;22.79;36.54
53300;BME280;39187;48.476;8.310;2022-10-28T12:51:09;92043.47;;;22.28;36.38
53300;BME280;39187;48.476;8.310;2022-10-28T12:54:13;92041.81;;;21.92;36.93
53300;BME280;39187;48.476;8.310;2022-10-28T12:56:55;92032.59;;;21.98;37.20
53300;BME280;39187;48.476;8.310;2022-10-28T12:59:31;92039.72;;;22.11;37.13
53300;BME280;39187;48.476;8.310;2022-10-28T13:02:00;92033.06;;;21.97;37.54
53300;BME280;39187;48.476;8.310;2022-10-28T13:04:27;92039.91;;;22.07;37.65
53300;BME280;39187;48.476;8.310;2022-10-28T13:07:18;92036.41;;;21.92;37.39
53300;BME280;39187;48.476;8.310;2022-10-28T13:21:04;92033.75;;;22.07;38.69
53300;BME280;39187;48.476;8.310;2022-10-28T13:26:33;92038.06;;;22.43;39.34
53300;BME280;39187;48.476;8.310;2022-10-28T13:29:02;92043.09;;;22.35;39.69
53300;BME280;39187;48.476;8.310;2022-10-28T13:34:03;92043.66;;;22.54;39.17
53300;BME280;39187;48.476;8.310;2022-10-28T13:36:31;92048.56;;;22.64;38.73
53300;BME280;39187;48.476;8.310;2022-10-28T13:39:10;92050.44;;;22.58;38.48
53300;BME280;39187;48.476;8.310;2022-10-28T13:41:46;92047.72;;;22.58;38.76
53300;BME280;39187;48.476;8.310;2022-10-28T13:44:22;92052.22;;;22.47;38.85
53300;BME280;39187;48.476;8.310;2022-10-28T13:46:58;92052.09;;;22.41;38.95
53300;BME280;39187;48.476;8.310;2022-10-28T13:49:30;92054.06;;;22.40;39.14
53300;BME280;39187;48.476;8.310;2022-10-28T13:54:51;92053.50;;;22.51;38.96
53300;BME280;39187;48.476;8.310;2022-10-28T13:57:37;92055.56;;;21.88;39.11
53300;BME280;39187;48.476;8.310;2022-10-28T14:00:08;92058.38;;;21.94;38.97
53300;BME280;39187;48.476;8.310;2022-10-28T14:02:56;92057.59;;;22.17;39.00
53300;BME280;39187;48.476;8.310;2022-10-28T14:08:38;92055.34;;;22.16;39.88
53300;BME280;39187;48.476;8.310;2022-10-28T14:11:25;92053.97;;;22.20;39.53
53300;BME280;39187;48.476;8.310;2022-10-28T14:13:58;92051.69;;;22.04;39.65
53300;BME280;39187;48.476;8.310;2022-10-28T14:16:35;92052.72;;;22.07;39.68
53300;BME280;39187;48.476;8.310;2022-10-28T14:21:44;92050.91;;;21.65;39.13
53300;BME280;39187;48.476;8.310;2022-10-28T14:24:35;92046.47;;;21.53;39.12
53300;BME280;39187;48.476;8.310;2022-10-28T14:29:49;92048.59;;;21.49;39.62
53300;BME280;39187;48.476;8.310;2022-10-28T14:32:40;92050.38;;;21.76;39.48
53300;BME280;39187;48.476;8.310;2022-10-28T14:38:11;92044.38;;;21.95;40.11
53300;BME280;39187;48.476;8.310;2022-10-28T14:40:39;92047.47;;;21.79;40.36
53300;BME280;39187;48.476;8.310;2022-10-28T14:48:44;92050.91;;;21.41;41.62
53300;BME280;39187;48.476;8.310;2022-10-28T14:51:14;92048.94;;;21.42;41.89
53300;BME280;39187;48.476;8.310;2022-10-28T14:53:42;92051.03;;;21.47;42.24
53300;BME280;39187;48.476;8.310;2022-10-28T14:56:24;92048.72;;;21.31;42.25
53300;BME280;39187;48.476;8.310;2022-10-28T14:58:53;92044.72;;;21.08;42.58
53300;BME280;39187;48.476;8.310;2022-10-28T15:01:23;92043.03;;;21.19;42.03
53300;BME280;39187;48.476;8.310;2022-10-28T15:03:52;92041.44;;;21.04;42.44
53300;BME280;39187;48.476;8.310;2022-10-28T15:06:23;92050.97;;;20.99;42.56
53300;BME280;39187;48.476;8.310;2022-10-28T15:08:50;92045.00;;;20.86;42.80
53300;BME280;39187;48.476;8.310;2022-10-28T15:11:16;92047.81;;;20.92;42.94
53300;BME280;39187;48.476;8.310;2022-10-28T15:13:42;92053.25;;;20.92;42.72
53300;BME280;39187;48.476;8.310;2022-10-28T15:16:24;92050.44;;;20.77;42.89
53300;BME280;39187;48.476;8.310;2022-10-28T15:18:52;92053.38;;;20.97;42.75
53300;BME280;39187;48.476;8.310;2022-10-28T15:21:20;92041.34;;;20.98;43.10
53300;BME280;39187;48.476;8.310;2022-10-28T15:24:02;92048.97;;;20.67;43.83
53300;BME280;39187;48.476;8.310;2022-10-28T15:26:31;92049.91;;;20.97;43.18
53300;BME280;39187;48.476;8.310;2022-10-28T15:28:56;92044.19;;;20.95;43.21
53300;BME280;39187;48.476;8.310;2022-10-28T15:31:23;92054.38;;;21.00;43.53
53300;BME280;39187;48.476;8.310;2022-10-28T15:33:49;92053.66;;;20.99;43.70
53300;BME280;39187;48.476;8.310;2022-10-28T15:36:17;92047.16;;;21.06;43.69
53300;BME280;39187;48.476;8.310;2022-10-28T15:38:47;92042.97;;;21.05;43.81